sensor_id;sensor_type;location;lat;lon;timestamp;temperature;humidity
22948;DHT22;11640;52.520;13.456;2022-08-25T00:04:25;19.90;99.90
22948;DHT22;11640;52.520;13.456;2022-08-25T00:09:28;19.80;99.90
22948;DHT22;11640;52.520;13.456;2022-08-25T00:14:34;19.80;99.90
22948;DHT22;11640;52.520;13.456;2022-08-25T00:19:37;19.80;99.90
22948;DHT22;11640;52.520;13.456;2022-08-25T00:24:39;19.80;99.90
22948;DHT22;11640;52.520;13.456;2022-08-25T00:29:41;19.70;99.90
22948;DHT22;11640;52.520;13.456;2022-08-25T00:34:43;19.70;99.90
22948;DHT22;11640;52.520;13.456;2022-08-25T00:39:45;19.70;99.90
22948;DHT22;11640;52.520;13.456;2022-08-25T00:44:47;19.60;99.90
22948;DHT22;11640;52.520;13.456;2022-08-25T00:49:54;19.60;99.90
22948;DHT22;11640;52.520;13.456;2022-08-25T00:55:08;19.50;99.90
22948;DHT22;11640;52.520;13.456;2022-08-25T01:00:16;19.50;99.90
22948;DHT22;11640;52.520;13.456;2022-08-25T01:05:19;19.40;99.90
22948;DHT22;11640;52.520;13.456;2022-08-25T01:10:22;19.40;99.90
22948;DHT22;11640;52.520;13.456;2022-08-25T01:15:25;19.30;99.90
22948;DHT22;11640;52.520;13.456;2022-08-25T01:20:30;19.30;99.90
22948;DHT22;11640;52.520;13.456;2022-08-25T01:25:47;19.30;99.90
22948;DHT22;11640;52.520;13.456;2022-08-25T01:30:52;19.30;99.90
22948;DHT22;11640;52.520;13.456;2022-08-25T01:35:56;19.20;99.90
22948;DHT22;11640;52.520;13.456;2022-08-25T01:40:58;19.20;99.90
22948;DHT22;11640;52.520;13.456;2022-08-25T01:46:00;19.10;99.90
22948;DHT22;11640;52.520;13.456;2022-08-25T01:51:02;19.10;99.90
22948;DHT22;11640;52.520;13.456;2022-08-25T01:56:08;19.10;99.90
22948;DHT22;11640;52.520;13.456;2022-08-25T02:01:18;19.10;99.90
22948;DHT22;11640;52.520;13.456;2022-08-25T02:06:27;19.00;99.90
22948;DHT22;11640;52.520;13.456;2022-08-25T02:11:31;18.90;99.90
22948;DHT22;11640;52.520;13.456;2022-08-25T02:16:36;18.90;99.90
22948;DHT22;11640;52.520;13.456;2022-08-25T02:21:39;18.80;99.90
22948;DHT22;11640;52.520;13.456;2022-08-25T02:26:41;18.80;99.90
22948;DHT22;11640;52.520;13.456;2022-08-25T02:31:43;18.70;99.90
22948;DHT22;11640;52.520;13.456;2022-08-25T02:36:45;18.70;99.90
22948;DHT22;11640;52.520;13.456;2022-08-25T02:41:47;18.60;99.90
22948;DHT22;11640;52.520;13.456;2022-08-25T02:46:49;18.60;99.90
22948;DHT22;11640;52.520;13.456;2022-08-25T02:51:51;18.60;99.90
22948;DHT22;11640;52.520;13.456;2022-08-25T02:56:52;18.60;99.90
22948;DHT22;11640;52.520;13.456;2022-08-25T03:01:54;18.50;99.90
22948;DHT22;11640;52.520;13.456;2022-08-25T03:06:57;18.40;99.90
22948;DHT22;11640;52.520;13.456;2022-08-25T03:11:59;18.40;99.90
22948;DHT22;11640;52.520;13.456;2022-08-25T03:17:02;18.40;99.90
22948;DHT22;11640;52.520;13.456;2022-08-25T03:22:09;18.40;99.90
22948;DHT22;11640;52.520;13.456;2022-08-25T03:27:11;18.40;99.90
22948;DHT22;11640;52.520;13.456;2022-08-25T03:32:14;18.30;99.90
22948;DHT22;11640;52.520;13.456;2022-08-25T03:37:15;18.30;99.90
22948;DHT22;11640;52.520;13.456;2022-08-25T03:42:17;18.30;99.90
22948;DHT22;11640;52.520;13.456;2022-08-25T03:47:20;18.20;99.90
22948;DHT22;11640;52.520;13.456;2022-08-25T03:52:22;18.20;99.90
22948;DHT22;11640;52.520;13.456;2022-08-25T03:57:23;18.20;99.90
22948;DHT22;11640;52.520;13.456;2022-08-25T04:02:25;18.20;99.90
22948;DHT22;11640;52.520;13.456;2022-08-25T04:07:27;18.10;99.90
22948;DHT22;11640;52.520;13.456;2022-08-25T04:12:29;18.10;99.90
22948;DHT22;11640;52.520;13.456;2022-08-25T04:17:32;18.10;99.90
22948;DHT22;11640;52.520;13.456;2022-08-25T04:22:34;18.10;99.90
22948;DHT22;11640;52.520;13.456;2022-08-25T04:27:38;18.10;99.90
22948;DHT22;11640;52.520;13.456;2022-08-25T04:32:40;18.10;99.90
22948;DHT22;11640;52.520;13.456;2022-08-25T04:37:42;18.00;99.90
22948;DHT22;11640;52.520;13.456;2022-08-25T04:42:44;18.10;99.90
22948;DHT22;11640;52.520;13.456;2022-08-25T04:47:48;18.10;99.90
22948;DHT22;11640;52.520;13.456;2022-08-25T04:52:55;18.20;99.90
22948;DHT22;11640;52.520;13.456;2022-08-25T04:57:57;18.10;99.90
22948;DHT22;11640;52.520;13.456;2022-08-25T05:02:59;18.20;99.90
22948;DHT22;11640;52.520;13.456;2022-08-25T05:08:03;18.20;99.90
22948;DHT22;11640;52.520;13.456;2022-08-25T05:13:05;18.20;99.90
22948;DHT22;11640;52.520;13.456;2022-08-25T05:18:07;18.30;99.90
22948;DHT22;11640;52.520;13.456;2022-08-25T05:23:10;18.40;99.90
22948;DHT22;11640;52.520;13.456;2022-08-25T05:28:11;18.50;99.90
22948;DHT22;11640;52.520;13.456;2022-08-25T05:33:15;18.50;99.90
22948;DHT22;11640;52.520;13.456;2022-08-25T05:38:17;18.70;99.90
22948;DHT22;11640;52.520;13.456;2022-08-25T05:43:19;18.80;99.90
22948;DHT22;11640;52.520;13.456;2022-08-25T05:48:21;18.80;99.90
22948;DHT22;11640;52.520;13.456;2022-08-25T05:53:24;18.80;99.90
22948;DHT22;11640;52.520;13.456;2022-08-25T05:58:28;19.00;99.90
22948;DHT22;11640;52.520;13.456;2022-08-25T06:03:30;19.10;99.90
22948;DHT22;11640;52.520;13.456;2022-08-25T06:08:32;19.20;99.90
22948;DHT22;11640;52.520;13.456;2022-08-25T06:13:34;19.10;99.90
22948;DHT22;11640;52.520;13.456;2022-08-25T06:18:36;19.30;99.90
22948;DHT22;11640;52.520;13.456;2022-08-25T06:23:38;19.30;99.90
22948;DHT22;11640;52.520;13.456;2022-08-25T06:28:40;19.30;99.90
22948;DHT22;11640;52.520;13.456;2022-08-25T06:33:42;19.30;99.90
22948;DHT22;11640;52.520;13.456;2022-08-25T06:38:45;19.30;99.90
22948;DHT22;11640;52.520;13.456;2022-08-25T06:43:47;19.50;99.90
22948;DHT22;11640;52.520;13.456;2022-08-25T06:48:56;19.80;99.90
22948;DHT22;11640;52.520;13.456;2022-08-25T06:53:59;19.70;99.90
22948;DHT22;11640;52.520;13.456;2022-08-25T06:59:02;19.80;99.90
22948;DHT22;11640;52.520;13.456;2022-08-25T07:04:05;19.90;99.90
22948;DHT22;11640;52.520;13.456;2022-08-25T07:09:14;20.20;99.90
22948;DHT22;11640;52.520;13.456;2022-08-25T07:14:17;20.20;99.90
22948;DHT22;11640;52.520;13.456;2022-08-25T07:19:19;20.40;99.90
22948;DHT22;11640;52.520;13.456;2022-08-25T07:24:22;20.40;99.90
22948;DHT22;11640;52.520;13.456;2022-08-25T07:29:26;20.60;99.90
22948;DHT22;11640;52.520;13.456;2022-08-25T07:34:33;20.70;99.90
22948;DHT22;11640;52.520;13.456;2022-08-25T07:39:54;20.60;99.90
22948;DHT22;11640;52.520;13.456;2022-08-25T07:44:57;20.70;99.90
22948;DHT22;11640;52.520;13.456;2022-08-25T07:49:59;20.90;99.90
22948;DHT22;11640;52.520;13.456;2022-08-25T07:55:02;21.10;99.90
22948;DHT22;11640;52.520;13.456;2022-08-25T08:00:07;21.30;99.90
22948;DHT22;11640;52.520;13.456;2022-08-25T08:05:13;21.20;99.90
22948;DHT22;11640;52.520;13.456;2022-08-25T08:10:15;21.30;99.90
22948;DHT22;11640;52.520;13.456;2022-08-25T08:15:41;21.30;99.90
22948;DHT22;11640;52.520;13.456;2022-08-25T08:20:45;21.50;99.90
22948;DHT22;11640;52.520;13.456;2022-08-25T08:25:48;21.70;99.90
22948;DHT22;11640;52.520;13.456;2022-08-25T08:30:50;21.60;99.90
22948;DHT22;11640;52.520;13.456;2022-08-25T08:46:39;21.60;99.90
22948;DHT22;11640;52.520;13.456;2022-08-25T08:51:51;21.70;99.90
22948;DHT22;11640;52.520;13.456;2022-08-25T08:57:03;21.80;99.90
22948;DHT22;11640;52.520;13.456;2022-08-25T09:02:14;22.20;99.90
22948;DHT22;11640;52.520;13.456;2022-08-25T09:07:49;22.60;99.90
22948;DHT22;11640;52.520;13.456;2022-08-25T09:18:53;22.70;99.90
22948;DHT22;11640;52.520;13.456;2022-08-25T09:29:23;23.40;99.90
22948;DHT22;11640;52.520;13.456;2022-08-25T09:34:31;23.60;99.90
22948;DHT22;11640;52.520;13.456;2022-08-25T09:39:34;23.60;99.90
22948;DHT22;11640;52.520;13.456;2022-08-25T09:44:41;23.80;99.90
22948;DHT22;11640;52.520;13.456;2022-08-25T09:49:58;24.00;99.90
22948;DHT22;11640;52.520;13.456;2022-08-25T10:00:31;23.10;99.90
22948;DHT22;11640;52.520;13.456;2022-08-25T10:10:59;23.10;99.90
22948;DHT22;11640;52.520;13.456;2022-08-25T10:16:08;22.90;99.90
22948;DHT22;11640;52.520;13.456;2022-08-25T10:21:21;22.80;99.90
22948;DHT22;11640;52.520;13.456;2022-08-25T10:26:57;23.20;99.90
22948;DHT22;11640;52.520;13.456;2022-08-25T10:43:06;24.30;99.90
22948;DHT22;11640;52.520;13.456;2022-08-25T11:09:41;25.40;99.90
22948;DHT22;11640;52.520;13.456;2022-08-25T11:14:56;25.20;99.90
22948;DHT22;11640;52.520;13.456;2022-08-25T11:20:04;25.40;99.90
22948;DHT22;11640;52.520;13.456;2022-08-25T11:25:26;25.60;99.90
22948;DHT22;11640;52.520;13.456;2022-08-25T11:30:29;26.30;99.90
22948;DHT22;11640;52.520;13.456;2022-08-25T11:35:42;26.50;99.90
22948;DHT22;11640;52.520;13.456;2022-08-25T11:46:43;26.60;99.90
22948;DHT22;11640;52.520;13.456;2022-08-25T11:51:48;26.50;99.90
22948;DHT22;11640;52.520;13.456;2022-08-25T11:57:09;26.20;99.90
22948;DHT22;11640;52.520;13.456;2022-08-25T12:18:40;27.20;99.90
22948;DHT22;11640;52.520;13.456;2022-08-25T12:29:22;27.40;99.90
22948;DHT22;11640;52.520;13.456;2022-08-25T12:35:12;27.30;99.90
22948;DHT22;11640;52.520;13.456;2022-08-25T12:40:05;27.20;99.90
22948;DHT22;11640;52.520;13.456;2022-08-25T12:50:41;27.40;99.90
22948;DHT22;11640;52.520;13.456;2022-08-25T13:16:59;28.30;99.90
22948;DHT22;11640;52.520;13.456;2022-08-25T13:22:09;28.20;99.90
22948;DHT22;11640;52.520;13.456;2022-08-25T13:27:21;28.30;99.90
22948;DHT22;11640;52.520;13.456;2022-08-25T13:32:34;28.30;99.90
22948;DHT22;11640;52.520;13.456;2022-08-25T13:37:36;28.10;99.90
22948;DHT22;11640;52.520;13.456;2022-08-25T13:42:40;28.80;99.90
22948;DHT22;11640;52.520;13.456;2022-08-25T13:47:46;28.70;99.90
22948;DHT22;11640;52.520;13.456;2022-08-25T13:58:10;29.50;99.90
22948;DHT22;11640;52.520;13.456;2022-08-25T14:03:39;29.90;99.90
22948;DHT22;11640;52.520;13.456;2022-08-25T14:09:02;29.70;99.90
22948;DHT22;11640;52.520;13.456;2022-08-25T14:14:07;29.80;99.90
22948;DHT22;11640;52.520;13.456;2022-08-25T14:19:15;29.40;99.90
22948;DHT22;11640;52.520;13.456;2022-08-25T14:24:22;28.70;99.90
22948;DHT22;11640;52.520;13.456;2022-08-25T14:29:24;28.20;99.90
22948;DHT22;11640;52.520;13.456;2022-08-25T14:34:31;28.50;99.90
22948;DHT22;11640;52.520;13.456;2022-08-25T14:39:34;29.00;99.90
22948;DHT22;11640;52.520;13.456;2022-08-25T14:44:37;30.10;99.90
22948;DHT22;11640;52.520;13.456;2022-08-25T14:49:40;30.10;99.90
22948;DHT22;11640;52.520;13.456;2022-08-25T14:54:43;30.30;99.90
22948;DHT22;11640;52.520;13.456;2022-08-25T14:59:46;29.70;99.90
22948;DHT22;11640;52.520;13.456;2022-08-25T15:04:53;30.20;99.90
22948;DHT22;11640;52.520;13.456;2022-08-25T15:09:56;29.70;99.90
22948;DHT22;11640;52.520;13.456;2022-08-25T15:14:59;30.00;99.90
22948;DHT22;11640;52.520;13.456;2022-08-25T15:20:02;30.20;99.90
22948;DHT22;11640;52.520;13.456;2022-08-25T15:25:07;29.60;99.90
22948;DHT22;11640;52.520;13.456;2022-08-25T15:30:10;29.50;99.90
22948;DHT22;11640;52.520;13.456;2022-08-25T15:35:13;28.50;99.90
22948;DHT22;11640;52.520;13.456;2022-08-25T15:40:16;28.40;99.90
22948;DHT22;11640;52.520;13.456;2022-08-25T15:45:19;28.20;99.90
22948;DHT22;11640;52.520;13.456;2022-08-25T15:50:22;28.20;99.90
22948;DHT22;11640;52.520;13.456;2022-08-25T15:55:26;28.20;99.90
22948;DHT22;11640;52.520;13.456;2022-08-25T16:00:29;28.00;99.90
22948;DHT22;11640;52.520;13.456;2022-08-25T16:05:35;27.60;99.90
22948;DHT22;11640;52.520;13.456;2022-08-25T16:10:42;27.60;99.90
22948;DHT22;11640;52.520;13.456;2022-08-25T16:15:48;27.50;99.90
22948;DHT22;11640;52.520;13.456;2022-08-25T16:20:55;27.50;99.90
22948;DHT22;11640;52.520;13.456;2022-08-25T16:25:56;27.30;99.90
22948;DHT22;11640;52.520;13.456;2022-08-25T16:30:58;27.40;99.90
22948;DHT22;11640;52.520;13.456;2022-08-25T16:36:05;27.30;99.90
22948;DHT22;11640;52.520;13.456;2022-08-25T16:41:13;27.40;99.90
22948;DHT22;11640;52.520;13.456;2022-08-25T16:46:17;27.50;99.90
22948;DHT22;11640;52.520;13.456;2022-08-25T16:51:20;27.30;99.90
22948;DHT22;11640;52.520;13.456;2022-08-25T16:56:26;27.20;99.90
22948;DHT22;11640;52.520;13.456;2022-08-25T17:01:30;27.00;99.90
22948;DHT22;11640;52.520;13.456;2022-08-25T17:06:37;26.80;99.90
22948;DHT22;11640;52.520;13.456;2022-08-25T17:11:43;26.70;99.90
22948;DHT22;11640;52.520;13.456;2022-08-25T17:16:47;26.70;99.90
22948;DHT22;11640;52.520;13.456;2022-08-25T17:21:51;26.60;99.90
22948;DHT22;11640;52.520;13.456;2022-08-25T17:26:55;26.50;99.90
22948;DHT22;11640;52.520;13.456;2022-08-25T17:31:57;26.40;99.90
22948;DHT22;11640;52.520;13.456;2022-08-25T17:36:59;26.30;99.90
22948;DHT22;11640;52.520;13.456;2022-08-25T17:42:03;26.20;99.90
22948;DHT22;11640;52.520;13.456;2022-08-25T17:47:05;26.10;99.90
22948;DHT22;11640;52.520;13.456;2022-08-25T17:52:08;26.10;99.90
22948;DHT22;11640;52.520;13.456;2022-08-25T17:57:10;26.00;99.90
22948;DHT22;11640;52.520;13.456;2022-08-25T18:02:13;25.90;99.90
22948;DHT22;11640;52.520;13.456;2022-08-25T18:07:15;25.80;99.90
22948;DHT22;11640;52.520;13.456;2022-08-25T18:12:17;25.70;99.90
22948;DHT22;11640;52.520;13.456;2022-08-25T18:17:20;25.50;99.90
22948;DHT22;11640;52.520;13.456;2022-08-25T18:22:23;25.40;99.90
22948;DHT22;11640;52.520;13.456;2022-08-25T18:27:26;25.30;99.90
22948;DHT22;11640;52.520;13.456;2022-08-25T18:32:29;25.20;99.90
22948;DHT22;11640;52.520;13.456;2022-08-25T18:37:31;25.10;99.90
22948;DHT22;11640;52.520;13.456;2022-08-25T18:42:56;25.00;99.90
22948;DHT22;11640;52.520;13.456;2022-08-25T18:48:00;25.00;99.90
22948;DHT22;11640;52.520;13.456;2022-08-25T18:53:03;24.90;99.90
22948;DHT22;11640;52.520;13.456;2022-08-25T18:58:06;24.80;99.90
22948;DHT22;11640;52.520;13.456;2022-08-25T19:03:13;24.70;99.90
22948;DHT22;11640;52.520;13.456;2022-08-25T19:08:17;24.60;99.90
22948;DHT22;11640;52.520;13.456;2022-08-25T19:13:22;24.50;99.90
22948;DHT22;11640;52.520;13.456;2022-08-25T19:18:24;24.30;99.90
22948;DHT22;11640;52.520;13.456;2022-08-25T19:23:29;24.20;99.90
22948;DHT22;11640;52.520;13.456;2022-08-25T19:28:34;24.10;99.90
22948;DHT22;11640;52.520;13.456;2022-08-25T19:33:37;24.00;99.90
22948;DHT22;11640;52.520;13.456;2022-08-25T19:38:46;23.90;99.90
22948;DHT22;11640;52.520;13.456;2022-08-25T19:43:49;23.80;99.90
22948;DHT22;11640;52.520;13.456;2022-08-25T19:48:57;23.70;99.90
22948;DHT22;11640;52.520;13.456;2022-08-25T19:54:06;23.60;99.90
22948;DHT22;11640;52.520;13.456;2022-08-25T19:59:10;23.50;99.90
22948;DHT22;11640;52.520;13.456;2022-08-25T20:04:12;23.40;99.90
22948;DHT22;11640;52.520;13.456;2022-08-25T20:09:15;23.30;99.90
22948;DHT22;11640;52.520;13.456;2022-08-25T20:14:38;23.20;99.90
22948;DHT22;11640;52.520;13.456;2022-08-25T20:19:41;23.10;99.90
22948;DHT22;11640;52.520;13.456;2022-08-25T20:24:46;23.00;99.90
22948;DHT22;11640;52.520;13.456;2022-08-25T20:29:57;22.90;99.90
22948;DHT22;11640;52.520;13.456;2022-08-25T20:35:07;22.80;99.90
22948;DHT22;11640;52.520;13.456;2022-08-25T20:40:12;23.00;99.90
22948;DHT22;11640;52.520;13.456;2022-08-25T20:45:17;22.90;99.90
22948;DHT22;11640;52.520;13.456;2022-08-25T20:50:21;22.80;99.90
22948;DHT22;11640;52.520;13.456;2022-08-25T20:55:24;22.70;99.90
22948;DHT22;11640;52.520;13.456;2022-08-25T21:00:28;22.60;99.90
22948;DHT22;11640;52.520;13.456;2022-08-25T21:05:30;22.50;99.90
22948;DHT22;11640;52.520;13.456;2022-08-25T21:10:32;22.50;99.90
22948;DHT22;11640;52.520;13.456;2022-08-25T21:15:36;22.40;99.90
22948;DHT22;11640;52.520;13.456;2022-08-25T21:20:37;22.30;99.90
22948;DHT22;11640;52.520;13.456;2022-08-25T21:25:40;22.30;99.90
22948;DHT22;11640;52.520;13.456;2022-08-25T21:30:42;22.20;99.90
22948;DHT22;11640;52.520;13.456;2022-08-25T21:35:47;22.20;99.90
22948;DHT22;11640;52.520;13.456;2022-08-25T21:40:49;22.10;99.90
22948;DHT22;11640;52.520;13.456;2022-08-25T21:45:52;22.10;99.90
22948;DHT22;11640;52.520;13.456;2022-08-25T21:51:08;22.20;99.90
22948;DHT22;11640;52.520;13.456;2022-08-25T21:56:14;22.10;99.90
22948;DHT22;11640;52.520;13.456;2022-08-25T22:01:19;22.20;99.90
22948;DHT22;11640;52.520;13.456;2022-08-25T22:06:21;22.30;99.90
22948;DHT22;11640;52.520;13.456;2022-08-25T22:11:24;22.30;99.90
22948;DHT22;11640;52.520;13.456;2022-08-25T22:16:27;22.30;99.90
22948;DHT22;11640;52.520;13.456;2022-08-25T22:21:30;22.40;99.90
22948;DHT22;11640;52.520;13.456;2022-08-25T22:26:33;22.40;99.90
22948;DHT22;11640;52.520;13.456;2022-08-25T22:31:35;22.40;99.90
22948;DHT22;11640;52.520;13.456;2022-08-25T22:36:38;22.40;99.90
22948;DHT22;11640;52.520;13.456;2022-08-25T22:41:40;22.50;99.90
22948;DHT22;11640;52.520;13.456;2022-08-25T22:46:43;22.50;99.90
22948;DHT22;11640;52.520;13.456;2022-08-25T22:51:45;22.50;99.90
22948;DHT22;11640;52.520;13.456;2022-08-25T22:56:49;22.50;99.90
22948;DHT22;11640;52.520;13.456;2022-08-25T23:01:51;22.50;99.90
22948;DHT22;11640;52.520;13.456;2022-08-25T23:06:55;22.50;99.90
22948;DHT22;11640;52.520;13.456;2022-08-25T23:11:57;22.40;99.90
22948;DHT22;11640;52.520;13.456;2022-08-25T23:16:59;22.40;99.90
22948;DHT22;11640;52.520;13.456;2022-08-25T23:22:01;22.40;99.90
22948;DHT22;11640;52.520;13.456;2022-08-25T23:27:16;22.40;99.90
22948;DHT22;11640;52.520;13.456;2022-08-25T23:32:19;22.40;99.90
22948;DHT22;11640;52.520;13.456;2022-08-25T23:37:20;22.30;99.90
22948;DHT22;11640;52.520;13.456;2022-08-25T23:42:23;22.30;99.90
22948;DHT22;11640;52.520;13.456;2022-08-25T23:47:25;22.20;99.90
22948;DHT22;11640;52.520;13.456;2022-08-25T23:52:27;22.20;99.90
22948;DHT22;11640;52.520;13.456;2022-08-25T23:57:29;22.10;99.90
